createdAt,value
2023-03-11T00:00:39.685Z,113.20
2023-03-11T00:03:09.215Z,111.93
2023-03-11T00:05:39.541Z,111.97
2023-03-11T00:08:09.239Z,112.88
2023-03-11T00:10:40.402Z,119.30
2023-03-11T00:13:10.427Z,116.93
2023-03-11T00:15:39.411Z,112.88
2023-03-11T00:18:07.206Z,109.75
2023-03-11T00:20:38.581Z,108.07
2023-03-11T00:23:08.241Z,105.65
2023-03-11T00:25:37.901Z,103.22
2023-03-11T00:28:07.452Z,109.38
2023-03-11T00:30:34.873Z,30.55
2023-03-11T00:33:02.200Z,106.82
2023-03-11T00:35:33.545Z,105.80
2023-03-11T00:38:05.029Z,103.18
2023-03-11T00:40:34.385Z,100.03
2023-03-11T00:43:01.699Z,102.78
2023-03-11T00:45:29.412Z,100.00
2023-03-11T00:47:56.877Z,95.15
2023-03-11T00:50:28.517Z,102.57
2023-03-11T00:52:56.703Z,99.03
2023-03-11T00:55:30.775Z,101.95
2023-03-11T00:58:02.000Z,99.47
2023-03-11T01:00:30.762Z,105.18
2023-03-11T01:03:00.046Z,99.88
2023-03-11T01:05:31.336Z,97.22
2023-03-11T01:07:59.122Z,99.78
2023-03-11T01:10:27.841Z,101.03
2023-03-11T01:12:55.239Z,98.43
2023-03-11T01:15:29.318Z,98.85
2023-03-11T01:17:56.489Z,95.97
2023-03-11T01:20:23.959Z,95.43
2023-03-11T01:22:51.206Z,95.80
2023-03-11T01:25:21.304Z,95.30
2023-03-11T01:27:48.503Z,94.80
2023-03-11T01:30:22.429Z,93.60
2023-03-11T01:32:51.034Z,93.55
2023-03-11T01:35:20.684Z,95.00
2023-03-11T01:37:48.167Z,93.95
2023-03-11T01:40:23.947Z,94.80
2023-03-11T01:42:50.940Z,91.55
2023-03-11T01:45:42.018Z,90.38
2023-03-11T01:48:10.660Z,89.70
2023-03-11T01:50:44.167Z,99.28
2023-03-11T01:53:13.926Z,93.60
2023-03-11T01:55:41.609Z,88.47
2023-03-11T01:58:12.738Z,90.13
2023-03-11T02:00:40.027Z,89.15
2023-03-11T02:03:16.240Z,87.95
2023-03-11T02:05:43.631Z,92.70
2023-03-11T02:08:11.096Z,94.63
2023-03-11T02:10:41.903Z,180.98
2023-03-11T02:13:10.841Z,92.18
2023-03-11T02:15:39.968Z,89.55
2023-03-11T02:18:08.302Z,87.03
2023-03-11T02:21:01.010Z,93.20
2023-03-11T02:23:39.471Z,82.18
2023-03-11T02:26:17.632Z,84.90
2023-03-11T02:28:46.515Z,84.63
2023-03-11T02:31:14.466Z,81.75
2023-03-11T02:33:43.340Z,91.30
2023-03-11T02:36:36.106Z,88.85
2023-03-11T02:39:04.680Z,85.63
2023-03-11T02:41:34.811Z,92.15
2023-03-11T02:44:03.056Z,84.97
2023-03-11T02:46:30.211Z,86.70
2023-03-11T02:48:58.063Z,83.25
2023-03-11T02:51:25.108Z,82.85
2023-03-11T02:53:58.165Z,83.13
2023-03-11T02:56:25.643Z,86.32
2023-03-11T02:58:52.713Z,83.28
2023-03-11T03:01:19.822Z,82.93
2023-03-11T03:03:47.073Z,84.35
2023-03-11T03:06:14.175Z,81.78
2023-03-11T03:08:41.740Z,82.78
2023-03-11T03:11:08.860Z,82.80
2023-03-11T03:13:36.420Z,85.10
2023-03-11T03:16:03.906Z,83.85
2023-03-11T03:18:31.195Z,83.90
2023-03-11T03:20:58.201Z,80.50
2023-03-11T03:23:25.286Z,85.15
2023-03-11T03:25:52.463Z,83.50
2023-03-11T03:28:19.693Z,79.72
2023-03-11T03:30:47.110Z,83.22
2023-03-11T03:33:14.121Z,79.75
2023-03-11T03:35:44.478Z,80.55
2023-03-11T03:38:12.083Z,81.22
2023-03-11T03:40:40.015Z,83.13
2023-03-11T03:43:07.174Z,82.38
2023-03-11T03:45:34.202Z,87.10
2023-03-11T03:48:01.228Z,75.63
2023-03-11T03:50:28.353Z,78.53
2023-03-11T03:52:55.395Z,78.90
2023-03-11T03:55:22.528Z,77.40
2023-03-11T03:57:49.610Z,80.05
2023-03-11T04:00:17.359Z,81.97
2023-03-11T04:02:44.516Z,80.38
2023-03-11T04:05:11.716Z,75.57
2023-03-11T04:07:38.801Z,82.43
2023-03-11T04:10:06.956Z,77.07
2023-03-11T04:12:34.118Z,86.05
2023-03-11T04:15:01.217Z,79.03
2023-03-11T04:17:28.239Z,82.50
2023-03-11T04:19:55.349Z,75.80
2023-03-11T04:22:22.483Z,78.30
2023-03-11T04:24:49.567Z,82.28
2023-03-11T04:27:16.645Z,75.22
2023-03-11T04:29:43.707Z,79.60
2023-03-11T04:32:10.730Z,76.03
2023-03-11T04:34:37.953Z,84.15
2023-03-11T04:37:05.033Z,85.10
2023-03-11T04:39:32.118Z,84.10
2023-03-11T04:41:59.240Z,77.22
2023-03-11T04:44:26.418Z,81.22
2023-03-11T04:46:53.716Z,75.88
2023-03-11T04:49:20.888Z,81.40
2023-03-11T04:51:47.904Z,77.18
2023-03-11T04:54:15.165Z,78.35
2023-03-11T04:56:42.228Z,81.15
2023-03-11T04:59:09.355Z,78.93
2023-03-11T05:01:36.424Z,80.80
2023-03-11T05:04:03.746Z,76.43
2023-03-11T05:06:30.815Z,79.35
2023-03-11T05:08:59.081Z,76.63
2023-03-11T05:11:26.187Z,84.10
2023-03-11T05:13:53.246Z,77.00
2023-03-11T05:16:20.428Z,79.93
2023-03-11T05:18:47.570Z,77.15
2023-03-11T05:21:14.833Z,77.40
2023-03-11T05:23:41.925Z,76.18
2023-03-11T05:26:08.965Z,78.47
2023-03-11T05:28:36.053Z,77.43
2023-03-11T05:31:03.159Z,76.20
2023-03-11T05:33:35.367Z,74.45
2023-03-11T05:36:10.291Z,76.07
2023-03-11T05:38:38.297Z,78.80
2023-03-11T05:41:06.441Z,74.78
2023-03-11T05:43:33.491Z,77.95
2023-03-11T05:46:00.612Z,73.82
2023-03-11T05:48:27.681Z,73.03
2023-03-11T05:50:54.654Z,76.28
2023-03-11T05:53:21.645Z,74.57
2023-03-11T05:56:00.765Z,77.10
2023-03-11T05:58:32.482Z,76.80
2023-03-11T06:01:00.362Z,75.00
2023-03-11T06:03:27.755Z,77.30
2023-03-11T06:05:55.795Z,83.47
2023-03-11T06:08:22.874Z,76.18
2023-03-11T06:10:49.914Z,75.93
2023-03-11T06:13:17.153Z,83.47
2023-03-11T06:15:44.921Z,86.38
2023-03-11T06:18:12.187Z,90.07
2023-03-11T06:20:39.111Z,77.75
2023-03-11T06:23:06.106Z,75.50
2023-03-11T06:25:33.210Z,84.57
2023-03-11T06:28:00.249Z,79.18
2023-03-11T06:30:45.128Z,78.63
2023-03-11T06:33:14.597Z,74.70
2023-03-11T06:35:41.853Z,76.07
2023-03-11T06:38:09.203Z,75.70
2023-03-11T06:40:38.448Z,78.15
2023-03-11T06:43:05.592Z,77.97
2023-03-11T06:45:32.802Z,78.22
2023-03-11T06:47:59.900Z,78.22
2023-03-11T06:50:28.005Z,77.57
2023-03-11T06:52:55.110Z,85.55
2023-03-11T06:55:22.224Z,76.68
2023-03-11T06:57:49.322Z,82.30
2023-03-11T07:00:17.490Z,75.30
2023-03-11T07:02:44.841Z,82.03
2023-03-11T07:05:13.521Z,78.88
2023-03-11T07:07:40.805Z,81.70
2023-03-11T07:10:09.390Z,81.97
2023-03-11T07:12:36.421Z,90.40
2023-03-11T07:15:06.059Z,85.13
2023-03-11T07:17:33.153Z,82.82
2023-03-11T07:20:00.395Z,84.32
2023-03-11T07:22:27.499Z,82.90
2023-03-11T07:24:54.538Z,88.25
2023-03-11T07:27:23.142Z,86.78
2023-03-11T07:29:50.522Z,84.50
2023-03-11T07:32:18.012Z,85.55
2023-03-11T07:34:45.360Z,87.15
2023-03-11T07:37:12.493Z,85.65
2023-03-11T07:39:40.086Z,89.00
2023-03-11T07:42:07.545Z,88.55
2023-03-11T07:44:34.872Z,90.30
2023-03-11T07:47:06.455Z,87.88
2023-03-11T07:49:33.835Z,88.22
2023-03-11T07:52:00.966Z,88.00
2023-03-11T07:54:28.028Z,90.60
2023-03-11T07:56:55.095Z,90.82
2023-03-11T07:59:22.481Z,93.80
2023-03-11T08:01:50.736Z,96.80
2023-03-11T08:04:18.012Z,93.22
2023-03-11T08:06:47.659Z,93.95
2023-03-11T08:09:15.320Z,91.35
2023-03-11T08:11:42.851Z,98.35
2023-03-11T08:14:10.006Z,91.40
2023-03-11T08:16:39.924Z,96.15
2023-03-11T08:19:06.960Z,95.82
2023-03-11T08:21:34.046Z,95.72
2023-03-11T08:24:03.663Z,95.38
2023-03-11T08:26:32.564Z,98.97
2023-03-11T08:28:59.720Z,91.35
2023-03-11T08:31:31.547Z,95.70
2023-03-11T08:34:02.922Z,100.28
2023-03-11T08:36:31.201Z,97.80
2023-03-11T08:38:58.785Z,97.65
2023-03-11T08:41:26.593Z,103.65
2023-03-11T08:43:53.685Z,103.70
2023-03-11T08:46:39.042Z,99.43
2023-03-11T08:49:07.677Z,102.43
2023-03-11T08:51:35.950Z,102.93
2023-03-11T08:54:04.321Z,102.25
2023-03-11T08:56:31.648Z,106.60
2023-03-11T08:58:58.817Z,103.95
2023-03-11T09:01:26.004Z,104.88
2023-03-11T09:03:56.966Z,113.88
2023-03-11T09:06:24.901Z,115.03
2023-03-11T09:08:52.272Z,112.07
2023-03-11T09:11:19.778Z,111.95
2023-03-11T09:13:47.146Z,108.97
2023-03-11T09:16:18.535Z,113.63
2023-03-11T09:18:46.740Z,118.22
2023-03-11T09:21:15.371Z,110.65
2023-03-11T09:23:44.512Z,115.32
2023-03-11T09:26:12.548Z,113.13
2023-03-11T09:28:41.890Z,115.78
2023-03-11T09:31:09.877Z,112.05
2023-03-11T09:33:40.484Z,114.68
2023-03-11T09:36:17.170Z,111.88
2023-03-11T09:38:46.103Z,117.10
2023-03-11T09:41:57.074Z,122.93
2023-03-11T09:44:42.649Z,115.60
2023-03-11T09:48:01.193Z,109.90
2023-03-11T09:50:38.886Z,110.00
2023-03-11T09:53:30.429Z,122.93
2023-03-11T09:56:00.321Z,131.55
2023-03-11T09:58:53.581Z,116.63
2023-03-11T10:01:35.128Z,115.90
2023-03-11T10:04:27.225Z,120.95
2023-03-11T10:06:54.845Z,123.72
2023-03-11T10:09:41.446Z,123.78
2023-03-11T10:12:30.840Z,125.68
2023-03-11T10:15:31.527Z,133.30
2023-03-11T10:18:40.866Z,127.20
2023-03-11T10:21:53.385Z,131.20
2023-03-11T10:24:55.529Z,128.00
2023-03-11T10:27:37.609Z,131.88
2023-03-11T10:30:24.859Z,140.48
2023-03-11T10:33:20.562Z,144.05
2023-03-11T10:35:54.288Z,153.73
2023-03-11T10:38:27.065Z,161.98
2023-03-11T10:41:03.544Z,175.10
2023-03-11T10:43:45.666Z,173.48
2023-03-11T10:46:27.113Z,185.98
2023-03-11T10:48:54.487Z,188.60
2023-03-11T10:51:34.687Z,192.40
2023-03-11T10:54:04.034Z,199.30
2023-03-11T10:56:39.496Z,200.68
2023-03-11T10:59:50.628Z,196.60
2023-03-11T11:02:39.167Z,207.35
2023-03-11T11:05:18.227Z,215.70
2023-03-11T11:07:47.587Z,223.55
2023-03-11T11:10:16.854Z,225.48
2023-03-11T11:13:14.097Z,238.05
2023-03-11T11:15:52.194Z,249.55
2023-03-11T11:18:24.998Z,248.13
2023-03-11T11:21:05.814Z,252.52
2023-03-11T11:23:41.043Z,250.20
2023-03-11T11:26:23.020Z,250.07
2023-03-11T11:29:09.202Z,259.83
2023-03-11T11:31:45.369Z,272.25
2023-03-11T11:34:35.327Z,285.42
2023-03-11T11:37:07.683Z,298.60
2023-03-11T11:39:57.400Z,299.13
2023-03-11T11:42:28.916Z,304.92
2023-03-11T11:45:29.648Z,313.77
2023-03-11T11:48:09.124Z,305.23
2023-03-11T11:50:57.532Z,320.77
2023-03-11T11:53:57.269Z,304.00
2023-03-11T11:56:31.868Z,302.85
2023-03-11T11:59:01.363Z,319.05
2023-03-11T12:02:13.663Z,304.02
2023-03-11T12:04:54.037Z,306.92
2023-03-11T12:07:39.890Z,311.92
2023-03-11T12:10:37.739Z,317.73
2023-03-11T12:13:14.971Z,516.28
2023-03-11T12:15:52.985Z,318.50
2023-03-11T12:18:28.784Z,330.48
2023-03-11T12:20:57.107Z,341.00
2023-03-11T12:23:55.109Z,345.48
2023-03-11T12:26:29.126Z,359.50
2023-03-11T12:29:08.969Z,373.55
2023-03-11T12:31:42.049Z,387.63
2023-03-11T12:34:20.157Z,394.42
2023-03-11T12:36:58.958Z,406.52
2023-03-11T12:39:35.814Z,425.77
2023-03-11T12:42:19.793Z,414.75
2023-03-11T12:44:53.033Z,432.60
2023-03-11T12:47:26.325Z,433.50
2023-03-11T12:50:37.722Z,466.15
2023-03-11T12:53:06.941Z,458.75
2023-03-11T12:55:36.475Z,473.38
2023-03-11T12:58:56.194Z,475.35
2023-03-11T13:02:02.850Z,476.00
2023-03-11T13:04:56.431Z,492.67
2023-03-11T13:07:26.432Z,493.88
2023-03-11T13:10:18.915Z,507.27
2023-03-11T13:12:49.566Z,511.80
2023-03-11T13:15:20.453Z,517.90
2023-03-11T13:18:18.865Z,539.50
2023-03-11T13:20:50.237Z,539.03
2023-03-11T13:23:32.105Z,552.28
2023-03-11T13:26:17.071Z,560.40
2023-03-11T13:29:19.209Z,568.05
2023-03-11T13:32:23.174Z,582.97
2023-03-11T13:35:22.298Z,594.63
2023-03-11T13:38:45.917Z,613.55
2023-03-11T13:41:32.087Z,604.53
2023-03-11T13:44:26.970Z,613.42
2023-03-11T13:47:04.580Z,611.70
2023-03-11T13:49:42.996Z,569.25
2023-03-11T13:52:16.958Z,553.22
2023-03-11T13:54:58.375Z,541.22
2023-03-11T13:57:31.962Z,542.67
2023-03-11T14:00:29.868Z,522.78
2023-03-11T14:03:02.129Z,510.30
2023-03-11T14:05:36.188Z,516.38
2023-03-11T14:08:19.182Z,506.38
2023-03-11T14:11:17.491Z,480.80
2023-03-11T14:13:50.198Z,470.88
2023-03-11T14:16:44.137Z,476.55
2023-03-11T14:19:18.994Z,460.30
2023-03-11T14:21:49.219Z,454.20
2023-03-11T14:24:23.403Z,445.83
2023-03-11T14:26:55.906Z,436.10
2023-03-11T14:29:43.430Z,411.27
2023-03-11T14:32:37.598Z,399.15
2023-03-11T14:35:20.595Z,380.05
2023-03-11T14:37:47.753Z,359.40
2023-03-11T14:40:30.018Z,518.05
2023-03-11T14:43:02.488Z,338.90
2023-03-11T14:45:33.631Z,333.10
2023-03-11T14:48:18.185Z,333.13
2023-03-11T14:50:49.566Z,312.80
2023-03-11T14:53:41.530Z,296.60
2023-03-11T14:56:19.181Z,286.63
2023-03-11T14:59:23.469Z,283.88
2023-03-11T15:01:51.557Z,265.80
2023-03-11T15:04:33.905Z,273.00
2023-03-11T15:07:02.217Z,268.67
2023-03-11T15:09:30.457Z,255.02
2023-03-11T15:12:00.854Z,249.27
2023-03-11T15:14:31.979Z,258.48
2023-03-11T15:17:34.722Z,242.75
2023-03-11T15:20:07.552Z,232.65
2023-03-11T15:22:41.149Z,236.88
2023-03-11T15:25:19.520Z,244.02
2023-03-11T15:27:47.179Z,240.00
2023-03-11T15:30:28.125Z,234.10
2023-03-11T15:32:56.270Z,234.93
2023-03-11T15:35:31.067Z,232.60
2023-03-11T15:38:21.657Z,245.10
2023-03-11T15:41:01.096Z,238.73
2023-03-11T15:43:46.201Z,233.45
2023-03-11T15:46:13.268Z,239.30
2023-03-11T15:48:40.288Z,239.05
2023-03-11T15:51:17.357Z,243.77
2023-03-11T15:53:44.325Z,254.23
2023-03-11T15:56:21.394Z,251.55
2023-03-11T15:58:48.554Z,240.05
2023-03-11T16:01:15.527Z,238.45
2023-03-11T16:03:42.659Z,233.68
2023-03-11T16:06:09.696Z,235.73
2023-03-11T16:08:36.779Z,245.10
2023-03-11T16:11:03.834Z,245.75
2023-03-11T16:13:30.870Z,232.77
2023-03-11T16:15:57.994Z,235.07
2023-03-11T16:18:25.103Z,234.75
2023-03-11T16:20:54.397Z,234.52
2023-03-11T16:23:44.810Z,241.30
2023-03-11T16:26:17.558Z,237.88
2023-03-11T16:28:44.540Z,235.60
2023-03-11T16:31:11.666Z,231.98
2023-03-11T16:33:38.786Z,235.93
2023-03-11T16:36:06.536Z,235.35
2023-03-11T16:38:47.594Z,237.25
2023-03-11T16:41:15.915Z,218.77
2023-03-11T16:43:43.580Z,221.20
2023-03-11T16:46:10.742Z,217.60
2023-03-11T16:48:37.749Z,219.00
2023-03-11T16:51:05.074Z,213.13
2023-03-11T16:53:32.113Z,204.18
2023-03-11T16:55:59.869Z,198.43
2023-03-11T16:58:27.067Z,201.30
2023-03-11T17:00:54.122Z,193.52
2023-03-11T17:03:21.746Z,188.68
2023-03-11T17:05:49.247Z,185.88
2023-03-11T17:08:18.292Z,182.10
2023-03-11T17:10:46.679Z,182.65
2023-03-11T17:13:16.511Z,177.30
2023-03-11T17:15:45.867Z,173.70
2023-03-11T17:18:13.744Z,172.60
2023-03-11T17:20:43.682Z,169.40
2023-03-11T17:23:10.766Z,166.20
2023-03-11T17:25:41.703Z,169.00
2023-03-11T17:28:09.432Z,160.27
2023-03-11T17:30:37.767Z,151.00
2023-03-11T17:33:05.259Z,155.55
2023-03-11T17:35:32.326Z,156.95
2023-03-11T17:37:59.338Z,145.43
2023-03-11T17:40:27.165Z,142.02
2023-03-11T17:42:54.304Z,138.88
2023-03-11T17:45:21.231Z,138.35
2023-03-11T17:47:48.420Z,135.15
2023-03-11T17:50:15.682Z,130.18
2023-03-11T17:52:43.532Z,139.20
2023-03-11T17:55:17.395Z,134.40
2023-03-11T17:57:45.807Z,133.38
2023-03-11T18:00:15.197Z,132.65
2023-03-11T18:02:42.671Z,130.18
2023-03-11T18:05:10.342Z,125.47
2023-03-11T18:07:40.972Z,123.93
2023-03-11T18:10:10.103Z,125.55
2023-03-11T18:12:38.249Z,121.35
2023-03-11T18:15:08.379Z,123.15
2023-03-11T18:17:35.787Z,123.90
2023-03-11T18:20:03.602Z,116.22
2023-03-11T18:22:30.681Z,123.30
2023-03-11T18:24:57.988Z,114.47
2023-03-11T18:27:25.220Z,112.85
2023-03-11T18:29:52.175Z,112.50
2023-03-11T18:32:20.862Z,110.80
2023-03-11T18:34:51.265Z,113.57
2023-03-11T18:37:18.829Z,110.22
2023-03-11T18:39:46.178Z,104.45
2023-03-11T18:42:14.432Z,103.13
2023-03-11T18:44:42.515Z,97.35
2023-03-11T18:47:09.631Z,111.15
2023-03-11T18:49:37.964Z,99.03
2023-03-11T18:52:05.589Z,99.28
2023-03-11T18:54:32.933Z,95.68
2023-03-11T18:56:59.975Z,93.20
2023-03-11T18:59:27.912Z,101.60
2023-03-11T19:01:55.384Z,98.07
2023-03-11T19:04:22.884Z,96.68
2023-03-11T19:06:50.329Z,92.22
2023-03-11T19:09:21.255Z,90.57
2023-03-11T19:11:48.322Z,85.32
2023-03-11T19:14:15.833Z,96.70
2023-03-11T19:16:43.353Z,88.30
2023-03-11T19:19:11.903Z,87.67
2023-03-11T19:21:39.443Z,94.07
2023-03-11T19:24:06.856Z,84.85
2023-03-11T19:26:44.809Z,89.25
2023-03-11T19:29:14.366Z,82.23
2023-03-11T19:31:43.760Z,81.13
2023-03-11T19:34:11.066Z,79.10
2023-03-11T19:36:39.190Z,84.55
2023-03-11T19:39:06.338Z,86.30
2023-03-11T19:41:34.433Z,81.00
2023-03-11T19:44:04.366Z,82.97
2023-03-11T19:46:34.814Z,79.57
2023-03-11T19:49:03.085Z,77.27
2023-03-11T19:51:42.465Z,81.17
2023-03-11T19:54:16.932Z,76.60
2023-03-11T19:56:44.140Z,79.63
2023-03-11T19:59:11.602Z,78.53
2023-03-11T20:01:38.676Z,73.97
2023-03-11T20:04:06.366Z,75.87
2023-03-11T20:06:33.787Z,80.03
2023-03-11T20:09:01.032Z,82.27
2023-03-11T20:11:28.203Z,78.57
2023-03-11T20:13:56.539Z,84.83
2023-03-11T20:16:23.865Z,81.27
2023-03-11T20:18:51.630Z,76.17
2023-03-11T20:21:20.444Z,79.93
2023-03-11T20:23:49.138Z,77.53
2023-03-11T20:26:19.401Z,79.20
2023-03-11T20:28:47.156Z,101.23
2023-03-11T20:31:23.914Z,80.93
2023-03-11T20:33:52.080Z,77.03
2023-03-11T20:36:25.836Z,75.00
2023-03-11T20:38:55.111Z,76.27
2023-03-11T20:41:25.253Z,76.97
2023-03-11T20:43:57.076Z,74.60
2023-03-11T20:46:24.520Z,76.40
2023-03-11T20:48:51.969Z,70.70
2023-03-11T20:51:20.928Z,74.30
2023-03-11T20:53:49.191Z,70.27
2023-03-11T20:56:21.076Z,71.97
2023-03-11T20:58:51.149Z,71.70
2023-03-11T21:01:23.189Z,73.23
2023-03-11T21:03:53.598Z,74.67
2023-03-11T21:06:25.920Z,74.60
2023-03-11T21:08:58.414Z,72.07
2023-03-11T21:11:27.105Z,78.03
2023-03-11T21:13:55.567Z,73.53
2023-03-11T21:16:23.517Z,76.13
2023-03-11T21:18:50.759Z,73.40
2023-03-11T21:21:19.526Z,73.20
2023-03-11T21:23:47.966Z,71.17
2023-03-11T21:26:17.303Z,70.63
2023-03-11T21:28:47.172Z,69.80
2023-03-11T21:31:23.201Z,70.90
2023-03-11T21:33:54.858Z,68.43
2023-03-11T21:36:22.893Z,72.07
2023-03-11T21:38:51.195Z,76.57
2023-03-11T21:41:26.285Z,74.60
2023-03-11T21:43:56.165Z,77.13
2023-03-11T21:46:31.181Z,69.03
2023-03-11T21:49:00.698Z,69.80
2023-03-11T21:51:28.589Z,76.43
2023-03-11T21:53:56.915Z,67.53
2023-03-11T21:56:24.175Z,72.83
2023-03-11T21:58:54.955Z,67.23
2023-03-11T22:01:22.424Z,74.43
2023-03-11T22:03:49.599Z,70.33
2023-03-11T22:06:16.724Z,70.90
2023-03-11T22:08:46.118Z,70.63
2023-03-11T22:11:19.518Z,76.03
2023-03-11T22:13:49.229Z,66.93
2023-03-11T22:16:17.421Z,68.03
2023-03-11T22:18:47.773Z,67.30
2023-03-11T22:21:16.381Z,109.43
2023-03-11T22:23:46.191Z,74.17
2023-03-11T22:26:14.751Z,79.03
2023-03-11T22:28:41.747Z,73.13
2023-03-11T22:31:15.053Z,74.83
2023-03-11T22:33:42.667Z,78.43
2023-03-11T22:36:10.109Z,70.53
2023-03-11T22:38:39.409Z,70.53
2023-03-11T22:41:08.552Z,68.80
2023-03-11T22:43:37.323Z,69.17
2023-03-11T22:46:06.082Z,75.60
2023-03-11T22:48:35.545Z,69.80
2023-03-11T22:51:03.480Z,76.90
2023-03-11T22:53:30.651Z,74.43
2023-03-11T22:55:57.853Z,67.47
2023-03-11T22:58:25.003Z,69.30
2023-03-11T23:00:52.022Z,71.97
2023-03-11T23:03:19.116Z,70.43
2023-03-11T23:05:46.943Z,67.13
2023-03-11T23:08:16.649Z,66.00
2023-03-11T23:10:46.274Z,67.47
2023-03-11T23:13:14.090Z,69.10
2023-03-11T23:15:43.955Z,67.77
2023-03-11T23:18:12.716Z,64.13
2023-03-11T23:20:41.717Z,67.70
2023-03-11T23:23:10.743Z,65.93
2023-03-11T23:25:39.690Z,64.07
2023-03-11T23:28:07.656Z,74.50
2023-03-11T23:30:34.822Z,122.33
2023-03-11T23:33:03.174Z,75.57
2023-03-11T23:35:31.735Z,63.27
2023-03-11T23:37:59.446Z,67.97
2023-03-11T23:40:26.837Z,64.97
2023-03-11T23:42:54.094Z,63.93
2023-03-11T23:45:21.131Z,65.30
2023-03-11T23:47:48.265Z,62.87
2023-03-11T23:50:15.907Z,61.97
2023-03-11T23:52:43.436Z,63.10
2023-03-11T23:55:11.358Z,66.30
2023-03-11T23:57:39.446Z,66.10
